aviador You're here:

KT70 Decoded Metar

in
Report Time2017-07-26 05:58:00
UTC Time2017-07-26 06:29:55
Flight Rules vfr VFR
Wind130° at 04 kt
W.Rank130° ranks 4
Current wind is below 130° avg. (7.7)
Visibility9999 m
Phenomena:N/A
Clouds:N/A
Expected CloudBase > 24,400 ft AGL from Temp-Dew spread
CeilingNone
Temp27°C
Dew Point-34°C (1% RH)
Heat Index25.8°C
AAT21.7°C
QNH1015 hPa
Raw Report
KT70 260558Z AUTO 13004KT 10SM CLR 27/M34 A2998 RMK AO2 SLPNO
T02691338 10377 20269 403830256 50007 $=

Extra information for KT70:More info

Social comments